sensor_id;sensor_type;location;lat;lon;timestamp;pressure;altitude;pressure_sealevel;temperature;humidity
80137;BME280;69466;55.948;37.484;2023-06-14T00:00:59;99942.91;;;12.84;64.87
80137;BME280;69466;55.948;37.484;2023-06-14T00:03:24;99946.69;;;12.83;64.03
80137;BME280;69466;55.948;37.484;2023-06-14T00:05:51;99950.75;;;12.74;65.13
80137;BME280;69466;55.948;37.484;2023-06-14T00:08:17;99942.03;;;12.66;65.39
80137;BME280;69466;55.948;37.484;2023-06-14T00:10:44;99942.13;;;12.59;65.14
80137;BME280;69466;55.948;37.484;2023-06-14T00:13:11;99947.16;;;12.56;66.24
80137;BME280;69466;55.948;37.484;2023-06-14T00:15:37;99951.84;;;12.49;66.40
80137;BME280;69466;55.948;37.484;2023-06-14T00:18:04;99943.44;;;12.32;66.61
80137;BME280;69466;55.948;37.484;2023-06-14T00:20:31;99942.59;;;12.31;66.58
80137;BME280;69466;55.948;37.484;2023-06-14T00:23:01;99943.09;;;12.22;67.45
80137;BME280;69466;55.948;37.484;2023-06-14T00:25:28;99947.53;;;12.16;67.45
80137;BME280;69466;55.948;37.484;2023-06-14T00:27:54;99949.03;;;12.12;67.50
80137;BME280;69466;55.948;37.484;2023-06-14T00:30:20;99941.91;;;12.11;67.77
80137;BME280;69466;55.948;37.484;2023-06-14T00:32:47;99944.69;;;12.05;67.92
80137;BME280;69466;55.948;37.484;2023-06-14T00:35:13;99951.66;;;12.01;68.28
80137;BME280;69466;55.948;37.484;2023-06-14T00:37:39;99950.81;;;12.00;67.92
80137;BME280;69466;55.948;37.484;2023-06-14T00:40:06;99951.22;;;11.97;68.24
80137;BME280;69466;55.948;37.484;2023-06-14T00:42:32;99938.06;;;11.94;68.13
80137;BME280;69466;55.948;37.484;2023-06-14T00:44:59;99952.50;;;11.94;68.70
80137;BME280;69466;55.948;37.484;2023-06-14T00:47:25;99946.44;;;11.92;68.63
80137;BME280;69466;55.948;37.484;2023-06-14T00:49:53;99951.28;;;11.90;68.37
80137;BME280;69466;55.948;37.484;2023-06-14T00:52:22;99956.94;;;11.89;68.20
80137;BME280;69466;55.948;37.484;2023-06-14T00:54:51;99939.00;;;11.81;68.31
80137;BME280;69466;55.948;37.484;2023-06-14T00:57:17;99923.81;;;11.67;68.56
80137;BME280;69466;55.948;37.484;2023-06-14T00:59:48;99950.53;;;11.77;68.98
80137;BME280;69466;55.948;37.484;2023-06-14T01:02:14;99943.03;;;11.72;69.33
80137;BME280;69466;55.948;37.484;2023-06-14T01:04:47;99945.09;;;11.70;68.80
80137;BME280;69466;55.948;37.484;2023-06-14T01:10:33;99952.03;;;11.73;69.30
80137;BME280;69466;55.948;37.484;2023-06-14T01:13:20;99962.47;;;11.69;69.41
80137;BME280;69466;55.948;37.484;2023-06-14T01:15:47;99956.19;;;11.69;69.14
80137;BME280;69466;55.948;37.484;2023-06-14T01:18:13;99960.38;;;11.71;69.14
80137;BME280;69466;55.948;37.484;2023-06-14T01:20:47;99956.41;;;11.74;68.59
80137;BME280;69466;55.948;37.484;2023-06-14T01:23:17;99951.59;;;11.76;67.82
80137;BME280;69466;55.948;37.484;2023-06-14T01:25:44;99956.38;;;11.80;67.40
80137;BME280;69466;55.948;37.484;2023-06-14T01:28:12;99958.47;;;11.78;66.41
80137;BME280;69466;55.948;37.484;2023-06-14T01:30:40;99955.75;;;11.78;65.64
80137;BME280;69466;55.948;37.484;2023-06-14T01:33:24;99946.75;;;11.78;65.11
80137;BME280;69466;55.948;37.484;2023-06-14T01:35:52;99956.09;;;11.88;64.42
80137;BME280;69466;55.948;37.484;2023-06-14T01:38:20;99945.59;;;11.92;63.91
80137;BME280;69466;55.948;37.484;2023-06-14T01:40:47;99949.34;;;11.97;64.48
80137;BME280;69466;55.948;37.484;2023-06-14T01:43:15;99953.53;;;12.00;64.48
80137;BME280;69466;55.948;37.484;2023-06-14T01:45:42;99957.84;;;12.08;63.89
80137;BME280;69466;55.948;37.484;2023-06-14T01:48:09;99944.25;;;12.08;62.39
80137;BME280;69466;55.948;37.484;2023-06-14T01:50:36;99951.28;;;12.15;62.06
80137;BME280;69466;55.948;37.484;2023-06-14T01:53:09;99943.59;;;12.12;61.58
80137;BME280;69466;55.948;37.484;2023-06-14T01:55:37;99957.16;;;12.19;61.55
80137;BME280;69466;55.948;37.484;2023-06-14T01:58:06;99941.03;;;12.17;61.68
80137;BME280;69466;55.948;37.484;2023-06-14T02:00:32;99954.69;;;12.35;61.50
80137;BME280;69466;55.948;37.484;2023-06-14T02:02:58;99951.47;;;12.45;61.38
80137;BME280;69466;55.948;37.484;2023-06-14T02:05:26;99947.63;;;12.53;60.40
80137;BME280;69466;55.948;37.484;2023-06-14T02:07:53;99943.19;;;12.58;60.88
80137;BME280;69466;55.948;37.484;2023-06-14T02:10:20;99952.25;;;12.70;60.42
80137;BME280;69466;55.948;37.484;2023-06-14T02:12:47;99960.16;;;12.78;59.62
80137;BME280;69466;55.948;37.484;2023-06-14T02:15:13;99950.63;;;12.87;59.19
80137;BME280;69466;55.948;37.484;2023-06-14T02:17:43;99958.72;;;12.94;59.05
80137;BME280;69466;55.948;37.484;2023-06-14T02:20:10;99949.66;;;13.00;58.93
80137;BME280;69466;55.948;37.484;2023-06-14T02:22:36;99963.16;;;13.13;58.63
80137;BME280;69466;55.948;37.484;2023-06-14T02:25:02;99958.69;;;13.19;58.80
80137;BME280;69466;55.948;37.484;2023-06-14T02:27:29;99952.16;;;13.20;59.33
80137;BME280;69466;55.948;37.484;2023-06-14T02:29:55;99950.72;;;13.36;58.86
80137;BME280;69466;55.948;37.484;2023-06-14T02:32:21;99959.66;;;13.43;58.88
80137;BME280;69466;55.948;37.484;2023-06-14T02:34:47;99958.63;;;13.55;58.34
80137;BME280;69466;55.948;37.484;2023-06-14T02:37:18;99956.88;;;13.61;58.20
80137;BME280;69466;55.948;37.484;2023-06-14T02:39:45;99950.81;;;13.59;57.96
80137;BME280;69466;55.948;37.484;2023-06-14T02:42:11;99958.97;;;13.77;57.84
80137;BME280;69466;55.948;37.484;2023-06-14T02:44:37;99957.69;;;13.91;57.50
80137;BME280;69466;55.948;37.484;2023-06-14T02:47:04;99959.63;;;14.02;57.35
80137;BME280;69466;55.948;37.484;2023-06-14T02:49:31;99964.28;;;14.13;57.13
80137;BME280;69466;55.948;37.484;2023-06-14T02:51:58;99963.78;;;14.70;55.46
80137;BME280;69466;55.948;37.484;2023-06-14T02:54:24;99963.84;;;16.51;51.28
80137;BME280;69466;55.948;37.484;2023-06-14T02:56:50;99948.34;;;18.36;46.09
80137;BME280;69466;55.948;37.484;2023-06-14T02:59:16;99956.16;;;20.25;41.78
80137;BME280;69466;55.948;37.484;2023-06-14T03:01:43;99945.13;;;21.65;38.69
80137;BME280;69466;55.948;37.484;2023-06-14T03:04:12;99963.16;;;23.32;35.81
80137;BME280;69466;55.948;37.484;2023-06-14T03:06:39;99963.53;;;24.62;33.35
80137;BME280;69466;55.948;37.484;2023-06-14T03:09:06;99960.81;;;25.63;31.49
80137;BME280;69466;55.948;37.484;2023-06-14T03:11:37;99962.25;;;25.87;31.16
80137;BME280;69466;55.948;37.484;2023-06-14T03:14:03;99961.69;;;26.79;29.69
80137;BME280;69466;55.948;37.484;2023-06-14T03:16:30;99961.44;;;27.51;28.42
80137;BME280;69466;55.948;37.484;2023-06-14T03:18:58;99968.31;;;28.19;27.47
80137;BME280;69466;55.948;37.484;2023-06-14T03:21:27;99960.88;;;29.00;26.28
80137;BME280;69466;55.948;37.484;2023-06-14T03:23:57;99965.72;;;29.21;26.34
80137;BME280;69466;55.948;37.484;2023-06-14T03:26:24;99966.31;;;29.73;25.68
80137;BME280;69466;55.948;37.484;2023-06-14T03:28:53;99966.56;;;29.88;24.60
80137;BME280;69466;55.948;37.484;2023-06-14T03:31:19;99972.38;;;30.25;24.47
80137;BME280;69466;55.948;37.484;2023-06-14T03:33:45;99968.59;;;30.83;23.76
80137;BME280;69466;55.948;37.484;2023-06-14T03:36:12;99971.38;;;31.04;22.94
80137;BME280;69466;55.948;37.484;2023-06-14T03:38:39;99973.81;;;30.72;22.82
80137;BME280;69466;55.948;37.484;2023-06-14T03:41:05;99980.19;;;31.39;22.44
80137;BME280;69466;55.948;37.484;2023-06-14T03:43:32;99968.72;;;30.87;22.54
80137;BME280;69466;55.948;37.484;2023-06-14T03:45:59;99967.41;;;31.05;22.55
80137;BME280;69466;55.948;37.484;2023-06-14T03:48:25;99966.28;;;31.42;22.33
80137;BME280;69466;55.948;37.484;2023-06-14T03:50:52;99956.13;;;31.86;21.60
80137;BME280;69466;55.948;37.484;2023-06-14T03:53:20;99961.25;;;31.96;21.80
80137;BME280;69466;55.948;37.484;2023-06-14T03:55:50;99954.72;;;31.44;22.46
80137;BME280;69466;55.948;37.484;2023-06-14T03:58:20;99955.53;;;31.93;21.58
80137;BME280;69466;55.948;37.484;2023-06-14T04:00:46;99958.59;;;31.76;22.04
80137;BME280;69466;55.948;37.484;2023-06-14T04:03:12;99949.34;;;31.87;21.59
80137;BME280;69466;55.948;37.484;2023-06-14T04:05:41;99951.75;;;32.25;21.58
80137;BME280;69466;55.948;37.484;2023-06-14T04:08:09;99960.19;;;32.13;21.04
80137;BME280;69466;55.948;37.484;2023-06-14T04:10:35;99955.66;;;32.48;20.96
80137;BME280;69466;55.948;37.484;2023-06-14T04:13:04;99955.44;;;32.69;20.44
80137;BME280;69466;55.948;37.484;2023-06-14T04:15:30;99954.22;;;33.26;20.04
80137;BME280;69466;55.948;37.484;2023-06-14T04:17:57;99953.44;;;33.13;20.14
80137;BME280;69466;55.948;37.484;2023-06-14T04:20:24;99953.00;;;33.42;19.97
80137;BME280;69466;55.948;37.484;2023-06-14T04:22:51;99950.53;;;33.10;19.96
80137;BME280;69466;55.948;37.484;2023-06-14T04:25:18;99952.44;;;33.84;19.01
80137;BME280;69466;55.948;37.484;2023-06-14T04:27:46;99948.19;;;33.27;19.34
80137;BME280;69466;55.948;37.484;2023-06-14T04:30:13;99957.38;;;33.40;19.57
80137;BME280;69466;55.948;37.484;2023-06-14T04:32:47;99950.34;;;33.65;19.29
80137;BME280;69466;55.948;37.484;2023-06-14T04:35:15;99956.47;;;34.02;19.75
80137;BME280;69466;55.948;37.484;2023-06-14T04:37:43;99947.84;;;33.76;19.43
80137;BME280;69466;55.948;37.484;2023-06-14T04:40:12;99951.94;;;33.98;19.20
80137;BME280;69466;55.948;37.484;2023-06-14T04:42:39;99943.97;;;34.00;19.02
80137;BME280;69466;55.948;37.484;2023-06-14T04:45:08;99954.66;;;34.10;18.61
80137;BME280;69466;55.948;37.484;2023-06-14T04:47:36;99946.31;;;34.52;18.77
80137;BME280;69466;55.948;37.484;2023-06-14T04:50:05;99959.56;;;34.90;18.51
80137;BME280;69466;55.948;37.484;2023-06-14T04:52:31;99952.31;;;34.69;18.00
80137;BME280;69466;55.948;37.484;2023-06-14T04:54:59;99952.88;;;34.98;18.51
80137;BME280;69466;55.948;37.484;2023-06-14T04:57:26;99960.22;;;35.48;18.12
80137;BME280;69466;55.948;37.484;2023-06-14T04:59:56;99961.81;;;34.81;18.68
80137;BME280;69466;55.948;37.484;2023-06-14T05:02:25;99943.47;;;34.90;17.98
80137;BME280;69466;55.948;37.484;2023-06-14T05:04:53;99952.84;;;35.17;17.71
80137;BME280;69466;55.948;37.484;2023-06-14T05:07:19;99959.38;;;35.67;17.63
80137;BME280;69466;55.948;37.484;2023-06-14T05:09:47;99962.47;;;35.62;17.52
80137;BME280;69466;55.948;37.484;2023-06-14T05:12:13;99956.81;;;35.84;17.26
80137;BME280;69466;55.948;37.484;2023-06-14T05:14:43;99953.97;;;35.12;18.00
80137;BME280;69466;55.948;37.484;2023-06-14T05:17:09;99964.66;;;35.23;17.36
80137;BME280;69466;55.948;37.484;2023-06-14T05:19:35;99964.66;;;35.23;17.47
80137;BME280;69466;55.948;37.484;2023-06-14T05:22:01;99968.19;;;34.97;17.70
80137;BME280;69466;55.948;37.484;2023-06-14T05:24:28;99962.78;;;34.31;18.45
80137;BME280;69466;55.948;37.484;2023-06-14T05:26:57;99951.88;;;34.48;18.00
80137;BME280;69466;55.948;37.484;2023-06-14T05:29:23;99947.56;;;34.35;17.89
80137;BME280;69466;55.948;37.484;2023-06-14T05:31:49;99946.78;;;34.73;17.79
80137;BME280;69466;55.948;37.484;2023-06-14T05:34:15;99947.13;;;34.91;17.56
80137;BME280;69466;55.948;37.484;2023-06-14T05:36:41;99948.09;;;34.79;17.68
80137;BME280;69466;55.948;37.484;2023-06-14T05:39:07;99945.94;;;34.92;17.57
80137;BME280;69466;55.948;37.484;2023-06-14T05:41:34;99951.34;;;34.43;18.16
80137;BME280;69466;55.948;37.484;2023-06-14T05:43:59;99946.81;;;34.96;17.39
80137;BME280;69466;55.948;37.484;2023-06-14T05:46:26;99939.91;;;34.93;16.86
80137;BME280;69466;55.948;37.484;2023-06-14T05:48:52;99943.56;;;35.17;16.67
80137;BME280;69466;55.948;37.484;2023-06-14T05:51:18;99947.00;;;35.29;16.81
80137;BME280;69466;55.948;37.484;2023-06-14T05:53:45;99961.84;;;35.98;16.15
80137;BME280;69466;55.948;37.484;2023-06-14T05:56:12;99949.94;;;36.12;16.21
80137;BME280;69466;55.948;37.484;2023-06-14T05:58:38;99960.34;;;36.04;16.04
80137;BME280;69466;55.948;37.484;2023-06-14T06:01:04;99952.31;;;35.57;16.10
80137;BME280;69466;55.948;37.484;2023-06-14T06:03:30;99949.34;;;35.46;16.13
80137;BME280;69466;55.948;37.484;2023-06-14T06:05:55;99954.47;;;36.16;15.86
80137;BME280;69466;55.948;37.484;2023-06-14T06:08:21;99954.97;;;35.95;16.04
80137;BME280;69466;55.948;37.484;2023-06-14T06:10:47;99957.97;;;36.06;15.85
80137;BME280;69466;55.948;37.484;2023-06-14T06:13:13;99961.63;;;36.36;15.47
80137;BME280;69466;55.948;37.484;2023-06-14T06:15:39;99958.00;;;36.39;15.53
80137;BME280;69466;55.948;37.484;2023-06-14T06:18:05;99956.88;;;36.14;15.35
80137;BME280;69466;55.948;37.484;2023-06-14T06:20:30;99960.63;;;35.95;15.50
80137;BME280;69466;55.948;37.484;2023-06-14T06:22:58;99950.78;;;35.86;15.84
80137;BME280;69466;55.948;37.484;2023-06-14T06:25:27;99950.22;;;35.50;15.77
80137;BME280;69466;55.948;37.484;2023-06-14T06:27:54;99950.19;;;35.24;16.10
80137;BME280;69466;55.948;37.484;2023-06-14T06:30:24;99952.53;;;35.45;15.45
80137;BME280;69466;55.948;37.484;2023-06-14T06:32:50;99949.41;;;35.27;16.04
80137;BME280;69466;55.948;37.484;2023-06-14T06:35:16;99941.78;;;35.08;15.94
80137;BME280;69466;55.948;37.484;2023-06-14T06:37:43;99938.44;;;34.61;15.89
80137;BME280;69466;55.948;37.484;2023-06-14T06:40:09;99936.41;;;35.45;15.54
80137;BME280;69466;55.948;37.484;2023-06-14T06:42:35;99932.78;;;35.45;15.66
80137;BME280;69466;55.948;37.484;2023-06-14T06:45:05;99944.03;;;34.99;16.32
80137;BME280;69466;55.948;37.484;2023-06-14T06:47:34;99929.03;;;34.73;15.92
80137;BME280;69466;55.948;37.484;2023-06-14T06:49:59;99931.69;;;35.07;15.76
80137;BME280;69466;55.948;37.484;2023-06-14T06:52:25;99930.97;;;34.68;15.92
80137;BME280;69466;55.948;37.484;2023-06-14T06:54:51;99933.06;;;35.63;15.36
80137;BME280;69466;55.948;37.484;2023-06-14T06:57:20;99931.25;;;34.25;15.54
80137;BME280;69466;55.948;37.484;2023-06-14T06:59:49;99928.66;;;34.74;16.36
80137;BME280;69466;55.948;37.484;2023-06-14T07:02:16;99928.66;;;33.81;16.55
80137;BME280;69466;55.948;37.484;2023-06-14T07:04:42;99933.03;;;34.72;16.41
80137;BME280;69466;55.948;37.484;2023-06-14T07:07:08;99928.19;;;35.14;15.22
80137;BME280;69466;55.948;37.484;2023-06-14T07:09:35;99933.84;;;35.14;15.06
80137;BME280;69466;55.948;37.484;2023-06-14T07:12:01;99932.78;;;35.22;14.94
80137;BME280;69466;55.948;37.484;2023-06-14T07:14:27;99939.94;;;35.16;15.03
80137;BME280;69466;55.948;37.484;2023-06-14T07:16:55;99946.31;;;34.71;14.49
80137;BME280;69466;55.948;37.484;2023-06-14T07:19:21;99931.53;;;34.58;14.17
80137;BME280;69466;55.948;37.484;2023-06-14T07:21:47;99926.78;;;34.82;14.85
80137;BME280;69466;55.948;37.484;2023-06-14T07:24:13;99926.44;;;34.64;15.22
80137;BME280;69466;55.948;37.484;2023-06-14T07:26:39;99930.56;;;35.12;15.00
80137;BME280;69466;55.948;37.484;2023-06-14T07:29:05;99918.78;;;34.64;15.53
80137;BME280;69466;55.948;37.484;2023-06-14T07:31:30;99905.00;;;34.40;15.63
80137;BME280;69466;55.948;37.484;2023-06-14T07:33:56;99914.19;;;34.76;15.44
80137;BME280;69466;55.948;37.484;2023-06-14T07:36:22;99916.75;;;34.23;15.56
80137;BME280;69466;55.948;37.484;2023-06-14T07:38:48;99916.25;;;33.67;16.62
80137;BME280;69466;55.948;37.484;2023-06-14T07:41:16;99913.34;;;33.48;16.44
80137;BME280;69466;55.948;37.484;2023-06-14T07:43:41;99912.03;;;33.61;16.41
80137;BME280;69466;55.948;37.484;2023-06-14T07:46:07;99917.97;;;33.71;16.12
80137;BME280;69466;55.948;37.484;2023-06-14T07:48:35;99908.16;;;34.00;16.17
80137;BME280;69466;55.948;37.484;2023-06-14T07:51:01;99917.50;;;33.69;16.03
80137;BME280;69466;55.948;37.484;2023-06-14T07:53:27;99907.88;;;33.70;16.44
80137;BME280;69466;55.948;37.484;2023-06-14T07:55:52;99903.88;;;33.71;16.14
80137;BME280;69466;55.948;37.484;2023-06-14T07:58:18;99911.00;;;33.18;16.51
80137;BME280;69466;55.948;37.484;2023-06-14T08:00:44;99910.03;;;33.61;16.70
80137;BME280;69466;55.948;37.484;2023-06-14T08:03:11;99902.38;;;33.93;16.52
80137;BME280;69466;55.948;37.484;2023-06-14T08:05:37;99898.84;;;33.30;16.24
80137;BME280;69466;55.948;37.484;2023-06-14T08:08:03;99903.38;;;32.32;17.47
80137;BME280;69466;55.948;37.484;2023-06-14T08:10:29;99911.00;;;31.43;17.99
80137;BME280;69466;55.948;37.484;2023-06-14T08:12:55;99896.16;;;31.06;18.65
80137;BME280;69466;55.948;37.484;2023-06-14T08:15:20;99908.00;;;30.46;19.28
80137;BME280;69466;55.948;37.484;2023-06-14T08:17:46;99913.44;;;30.42;19.46
80137;BME280;69466;55.948;37.484;2023-06-14T08:20:13;99909.28;;;30.48;19.24
80137;BME280;69466;55.948;37.484;2023-06-14T08:22:43;99913.50;;;30.01;19.45
80137;BME280;69466;55.948;37.484;2023-06-14T08:25:09;99919.06;;;29.50;20.00
80137;BME280;69466;55.948;37.484;2023-06-14T08:27:35;99915.16;;;29.43;20.92
80137;BME280;69466;55.948;37.484;2023-06-14T08:30:01;99914.25;;;29.80;20.06
80137;BME280;69466;55.948;37.484;2023-06-14T08:32:30;99921.69;;;29.47;20.64
80137;BME280;69466;55.948;37.484;2023-06-14T08:34:56;99921.63;;;28.80;21.24
80137;BME280;69466;55.948;37.484;2023-06-14T08:37:22;99908.34;;;28.77;21.29
80137;BME280;69466;55.948;37.484;2023-06-14T08:39:47;99892.75;;;28.58;20.71
80137;BME280;69466;55.948;37.484;2023-06-14T08:42:14;99917.19;;;28.79;20.97
80137;BME280;69466;55.948;37.484;2023-06-14T08:44:41;99911.00;;;28.47;20.78
80137;BME280;69466;55.948;37.484;2023-06-14T08:47:07;99904.44;;;28.35;21.37
80137;BME280;69466;55.948;37.484;2023-06-14T08:49:36;99902.00;;;28.25;21.51
80137;BME280;69466;55.948;37.484;2023-06-14T08:52:05;99910.97;;;27.96;22.28
80137;BME280;69466;55.948;37.484;2023-06-14T08:54:32;99893.91;;;28.06;22.42
80137;BME280;69466;55.948;37.484;2023-06-14T08:57:02;99901.97;;;27.82;22.13
80137;BME280;69466;55.948;37.484;2023-06-14T08:59:29;99897.69;;;27.67;22.34
80137;BME280;69466;55.948;37.484;2023-06-14T09:01:57;99899.03;;;27.30;22.99
80137;BME280;69466;55.948;37.484;2023-06-14T09:04:25;99894.50;;;26.95;23.27
80137;BME280;69466;55.948;37.484;2023-06-14T09:06:56;99906.38;;;27.17;22.82
80137;BME280;69466;55.948;37.484;2023-06-14T09:09:22;99888.50;;;27.18;23.31
80137;BME280;69466;55.948;37.484;2023-06-14T09:11:52;99889.84;;;27.21;22.80
80137;BME280;69466;55.948;37.484;2023-06-14T09:14:18;99889.53;;;26.92;22.98
80137;BME280;69466;55.948;37.484;2023-06-14T09:16:44;99885.75;;;26.57;23.67
80137;BME280;69466;55.948;37.484;2023-06-14T09:19:21;99894.34;;;26.46;23.90
80137;BME280;69466;55.948;37.484;2023-06-14T09:21:48;99879.72;;;26.19;23.75
80137;BME280;69466;55.948;37.484;2023-06-14T09:24:14;99881.25;;;26.02;24.20
80137;BME280;69466;55.948;37.484;2023-06-14T09:26:40;99877.41;;;25.76;24.39
80137;BME280;69466;55.948;37.484;2023-06-14T09:29:06;99874.38;;;25.86;24.90
80137;BME280;69466;55.948;37.484;2023-06-14T09:31:32;99885.31;;;25.83;24.54
80137;BME280;69466;55.948;37.484;2023-06-14T09:34:02;99890.84;;;25.61;24.64
80137;BME280;69466;55.948;37.484;2023-06-14T09:36:28;99889.63;;;25.89;24.33
80137;BME280;69466;55.948;37.484;2023-06-14T09:38:55;99881.94;;;25.72;24.50
80137;BME280;69466;55.948;37.484;2023-06-14T09:41:41;99874.47;;;25.59;24.46
80137;BME280;69466;55.948;37.484;2023-06-14T09:44:09;99876.56;;;25.89;24.17
80137;BME280;69466;55.948;37.484;2023-06-14T09:46:37;99876.00;;;26.01;24.22
80137;BME280;69466;55.948;37.484;2023-06-14T09:49:05;99868.59;;;25.96;24.11
80137;BME280;69466;55.948;37.484;2023-06-14T09:51:31;99875.94;;;26.15;23.68
80137;BME280;69466;55.948;37.484;2023-06-14T09:54:06;99878.81;;;26.23;24.09
80137;BME280;69466;55.948;37.484;2023-06-14T09:56:37;99863.97;;;25.92;24.21
80137;BME280;69466;55.948;37.484;2023-06-14T09:59:05;99874.44;;;25.73;24.26
80137;BME280;69466;55.948;37.484;2023-06-14T10:01:32;99871.34;;;25.74;24.45
80137;BME280;69466;55.948;37.484;2023-06-14T10:04:04;99873.69;;;25.81;24.28
80137;BME280;69466;55.948;37.484;2023-06-14T10:06:32;99854.09;;;25.86;23.57
80137;BME280;69466;55.948;37.484;2023-06-14T10:09:03;99856.34;;;25.97;23.60
80137;BME280;69466;55.948;37.484;2023-06-14T10:11:29;99859.47;;;26.04;24.16
80137;BME280;69466;55.948;37.484;2023-06-14T10:13:55;99854.69;;;25.96;24.37
80137;BME280;69466;55.948;37.484;2023-06-14T10:16:32;99854.03;;;25.77;24.33
80137;BME280;69466;55.948;37.484;2023-06-14T10:24:43;99838.75;;;25.66;24.76
80137;BME280;69466;55.948;37.484;2023-06-14T10:27:09;99834.75;;;25.81;24.94
80137;BME280;69466;55.948;37.484;2023-06-14T10:32:21;99845.81;;;25.72;25.01
80137;BME280;69466;55.948;37.484;2023-06-14T10:34:57;99827.22;;;25.45;24.73
80137;BME280;69466;55.948;37.484;2023-06-14T10:37:23;99817.31;;;25.53;25.08
80137;BME280;69466;55.948;37.484;2023-06-14T10:39:52;99831.78;;;25.77;24.72
80137;BME280;69466;55.948;37.484;2023-06-14T10:42:19;99833.72;;;25.54;25.09
80137;BME280;69466;55.948;37.484;2023-06-14T10:44:49;99825.06;;;25.42;24.64
80137;BME280;69466;55.948;37.484;2023-06-14T10:47:28;99845.16;;;25.26;24.92
80137;BME280;69466;55.948;37.484;2023-06-14T10:52:22;99833.88;;;25.08;25.25
80137;BME280;69466;55.948;37.484;2023-06-14T10:55:12;99826.56;;;25.12;25.21
80137;BME280;69466;55.948;37.484;2023-06-14T10:57:48;99811.56;;;25.00;25.60
80137;BME280;69466;55.948;37.484;2023-06-14T11:00:22;99818.44;;;25.02;25.60
80137;BME280;69466;55.948;37.484;2023-06-14T11:05:23;99829.22;;;24.77;25.57
80137;BME280;69466;55.948;37.484;2023-06-14T11:10:39;99819.03;;;24.58;25.31
80137;BME280;69466;55.948;37.484;2023-06-14T11:13:07;99814.28;;;24.45;25.82
80137;BME280;69466;55.948;37.484;2023-06-14T11:15:37;99817.03;;;24.32;25.86
80137;BME280;69466;55.948;37.484;2023-06-14T11:18:08;99807.09;;;24.12;26.36
80137;BME280;69466;55.948;37.484;2023-06-14T11:20:35;99806.22;;;24.16;25.99
80137;BME280;69466;55.948;37.484;2023-06-14T11:23:03;99805.38;;;24.16;26.17
80137;BME280;69466;55.948;37.484;2023-06-14T11:25:29;99804.19;;;24.03;26.51
80137;BME280;69466;55.948;37.484;2023-06-14T11:27:56;99810.28;;;24.05;26.37
80137;BME280;69466;55.948;37.484;2023-06-14T11:30:23;99803.53;;;23.93;26.18
80137;BME280;69466;55.948;37.484;2023-06-14T11:32:50;99806.84;;;23.95;26.36
80137;BME280;69466;55.948;37.484;2023-06-14T11:35:16;99797.78;;;23.89;26.36
80137;BME280;69466;55.948;37.484;2023-06-14T11:37:43;99795.75;;;23.95;26.62
80137;BME280;69466;55.948;37.484;2023-06-14T11:40:11;99784.97;;;23.74;26.44
80137;BME280;69466;55.948;37.484;2023-06-14T11:42:39;99798.59;;;23.90;26.69
80137;BME280;69466;55.948;37.484;2023-06-14T11:45:12;99784.53;;;23.86;26.44
80137;BME280;69466;55.948;37.484;2023-06-14T11:47:39;99791.13;;;23.90;26.85
80137;BME280;69466;55.948;37.484;2023-06-14T11:50:07;99782.50;;;23.92;26.92
80137;BME280;69466;55.948;37.484;2023-06-14T11:52:36;99777.50;;;23.75;26.17
80137;BME280;69466;55.948;37.484;2023-06-14T11:55:02;99792.31;;;23.84;26.25
80137;BME280;69466;55.948;37.484;2023-06-14T11:57:36;99786.72;;;23.70;26.24
80137;BME280;69466;55.948;37.484;2023-06-14T12:00:08;99782.16;;;23.61;26.59
80137;BME280;69466;55.948;37.484;2023-06-14T12:02:38;99783.13;;;23.51;26.99
80137;BME280;69466;55.948;37.484;2023-06-14T12:05:06;99790.47;;;23.61;27.45
80137;BME280;69466;55.948;37.484;2023-06-14T12:07:39;99773.34;;;23.59;27.20
80137;BME280;69466;55.948;37.484;2023-06-14T12:10:08;99777.06;;;23.68;26.95
80137;BME280;69466;55.948;37.484;2023-06-14T12:12:37;99772.34;;;23.68;26.82
80137;BME280;69466;55.948;37.484;2023-06-14T12:15:05;99771.03;;;23.79;26.83
80137;BME280;69466;55.948;37.484;2023-06-14T12:17:33;99774.16;;;23.78;27.07
80137;BME280;69466;55.948;37.484;2023-06-14T12:20:11;99770.47;;;23.82;27.01
80137;BME280;69466;55.948;37.484;2023-06-14T12:22:56;99769.09;;;23.80;26.35
80137;BME280;69466;55.948;37.484;2023-06-14T12:27:54;99765.25;;;23.62;26.22
80137;BME280;69466;55.948;37.484;2023-06-14T12:30:21;99760.06;;;23.56;26.38
80137;BME280;69466;55.948;37.484;2023-06-14T12:32:47;99760.59;;;23.58;26.19
80137;BME280;69466;55.948;37.484;2023-06-14T12:35:14;99765.72;;;23.51;26.30
80137;BME280;69466;55.948;37.484;2023-06-14T12:37:40;99764.91;;;23.50;26.59
80137;BME280;69466;55.948;37.484;2023-06-14T12:40:06;99760.41;;;23.54;26.43
80137;BME280;69466;55.948;37.484;2023-06-14T12:42:33;99744.34;;;23.51;26.74
80137;BME280;69466;55.948;37.484;2023-06-14T12:45:02;99740.28;;;23.43;26.55
80137;BME280;69466;55.948;37.484;2023-06-14T12:47:29;99738.81;;;23.51;27.00
80137;BME280;69466;55.948;37.484;2023-06-14T12:49:55;99747.94;;;23.52;27.56
80137;BME280;69466;55.948;37.484;2023-06-14T12:52:21;99743.78;;;23.54;27.12
80137;BME280;69466;55.948;37.484;2023-06-14T12:54:46;99735.97;;;23.56;27.42
80137;BME280;69466;55.948;37.484;2023-06-14T12:57:12;99739.56;;;23.57;27.72
80137;BME280;69466;55.948;37.484;2023-06-14T12:59:38;99731.03;;;23.53;27.50
80137;BME280;69466;55.948;37.484;2023-06-14T13:02:15;99727.97;;;23.55;27.80
80137;BME280;69466;55.948;37.484;2023-06-14T13:04:41;99728.47;;;23.57;27.56
80137;BME280;69466;55.948;37.484;2023-06-14T13:07:07;99729.53;;;23.61;27.93
80137;BME280;69466;55.948;37.484;2023-06-14T13:09:32;99721.81;;;23.58;28.02
80137;BME280;69466;55.948;37.484;2023-06-14T13:11:58;99726.75;;;23.61;27.82
80137;BME280;69466;55.948;37.484;2023-06-14T13:14:24;99729.09;;;23.54;28.21